createdAt,value
2023-01-19T00:01:24.979Z,-1.20
2023-01-19T00:16:33.976Z,-2.00
2023-01-19T00:31:34.251Z,-2.20
2023-01-19T00:46:34.064Z,-1.60
2023-01-19T01:01:45.071Z,-1.40
2023-01-19T01:01:45.112Z,-1.40
2023-01-19T01:01:45.556Z,-1.40
2023-01-19T01:16:24.201Z,-1.97
2023-01-19T01:31:24.575Z,-1.80
2023-01-19T01:46:24.253Z,-2.17
2023-01-19T02:01:24.755Z,-1.93
2023-01-19T02:16:24.596Z,-2.28
2023-01-19T02:31:24.748Z,-2.38
2023-01-19T02:46:24.976Z,-2.58
2023-01-19T03:01:24.916Z,-2.66
2023-01-19T03:16:24.753Z,-2.71
2023-01-19T03:31:24.830Z,-3.03
2023-01-19T03:46:24.758Z,-3.60
2023-01-19T04:01:24.966Z,-3.50
2023-01-19T04:16:24.950Z,-3.60
2023-01-19T04:31:25.089Z,-2.75
2023-01-19T04:46:25.106Z,-2.83
2023-01-19T05:01:34.241Z,-2.58
2023-01-19T05:16:24.413Z,-2.88
2023-01-19T05:31:24.429Z,-2.96
2023-01-19T05:46:24.474Z,-2.81
2023-01-19T06:01:24.427Z,-3.06
2023-01-19T06:16:26.120Z,-3.33
2023-01-19T06:31:24.481Z,-3.43
2023-01-19T06:46:24.588Z,-3.25
2023-01-19T07:01:24.789Z,-3.66
2023-01-19T07:16:24.732Z,-4.30
2023-01-19T08:04:25.283Z,-1.44
2023-01-19T08:11:07.370Z,-1.94
2023-01-19T08:16:24.098Z,-1.94
2023-01-19T08:21:15.091Z,-1.94
2023-01-19T08:49:30.480Z,-2.57
2023-01-19T09:04:18.653Z,-3.50
2023-01-19T09:37:22.230Z,-0.94
2023-01-19T09:51:02.083Z,-0.94
2023-01-19T10:15:23.534Z,-1.31
2023-01-19T10:46:09.132Z,-1.50
2023-01-19T11:03:39.881Z,0.00
2023-01-19T11:15:55.869Z,-0.57
2023-01-19T11:30:57.911Z,-0.57
2023-01-19T11:46:02.125Z,-0.38
2023-01-19T12:00:55.632Z,-0.25
2023-01-19T12:15:23.445Z,0.07
2023-01-19T12:30:30.160Z,0.28
2023-01-19T12:45:52.212Z,0.43
2023-01-19T13:00:23.554Z,0.32
2023-01-19T13:15:55.915Z,0.50
2023-01-19T13:30:59.600Z,0.77
2023-01-19T13:45:54.483Z,0.77
2023-01-19T14:00:55.585Z,0.30
2023-01-19T14:16:40.747Z,0.20
2023-01-19T14:30:24.205Z,0.65
2023-01-19T14:45:24.061Z,0.65
2023-01-19T15:00:24.307Z,0.65
2023-01-19T15:15:24.774Z,0.57
2023-01-19T15:30:25.711Z,0.62
2023-01-19T15:45:38.016Z,0.77
2023-01-19T16:01:49.509Z,0.57
2023-01-19T16:16:24.409Z,0.50
2023-01-19T16:31:24.376Z,0.45
2023-01-19T16:46:24.400Z,0.38
2023-01-19T17:01:24.634Z,0.53
2023-01-19T17:16:24.528Z,0.40
2023-01-19T17:31:24.657Z,0.63
2023-01-19T17:46:24.650Z,0.10
2023-01-19T18:01:24.798Z,0.20
2023-01-19T18:16:24.775Z,0.83
2023-01-19T18:31:24.719Z,0.73
2023-01-19T18:46:24.792Z,0.80
2023-01-19T19:01:25.123Z,0.65
2023-01-19T19:16:25.027Z,0.60
2023-01-19T19:31:25.191Z,0.67
2023-01-19T19:46:25.001Z,0.47
2023-01-19T20:01:27.077Z,-0.10
2023-01-19T20:16:25.108Z,-0.20
2023-01-19T20:31:25.379Z,0.28
2023-01-19T20:46:34.642Z,0.30
2023-01-19T21:01:34.427Z,0.15
2023-01-19T21:16:24.437Z,0.15
2023-01-19T21:31:27.156Z,0.05
2023-01-19T21:46:24.474Z,0.27
2023-01-19T22:01:24.633Z,0.17
2023-01-19T22:16:24.490Z,0.15
2023-01-19T22:31:24.641Z,0.03
2023-01-19T22:46:24.708Z,-0.70
2023-01-19T23:01:38.134Z,-1.00
2023-01-19T23:16:24.337Z,-1.40
2023-01-19T23:31:24.924Z,-0.83
2023-01-19T23:46:24.485Z,-1.03
